createdAt,value
2023-05-19T00:02:16.099Z,101882.92
2023-05-19T00:04:49.632Z,101882.66
2023-05-19T00:07:21.820Z,101881.14
2023-05-19T00:09:54.550Z,101879.42
2023-05-19T00:12:27.285Z,101880.17
2023-05-19T00:14:59.733Z,101873.15
2023-05-19T00:17:31.561Z,101876.86
2023-05-19T00:20:07.389Z,101877.61
2023-05-19T00:22:39.247Z,101873.39
2023-05-19T00:25:12.121Z,101875.88
2023-05-19T00:27:43.939Z,101871.65
2023-05-19T00:30:16.857Z,101873.98
2023-05-19T00:32:48.758Z,101870.79
2023-05-19T00:35:20.762Z,101871.05
2023-05-19T00:37:52.635Z,101869.23
2023-05-19T00:40:25.166Z,101868.83
2023-05-19T00:42:57.626Z,101867.22
2023-05-19T00:45:29.714Z,101870.03
2023-05-19T00:48:01.732Z,101869.98
2023-05-19T00:50:33.961Z,101864.95
2023-05-19T00:53:06.936Z,101864.13
2023-05-19T00:55:40.607Z,101861.71
2023-05-19T00:58:13.879Z,101864.66
2023-05-19T01:00:45.869Z,101860.70
2023-05-19T01:05:53.810Z,101857.64
2023-05-19T01:08:26.228Z,101858.95
2023-05-19T01:10:58.119Z,101860.17
2023-05-19T01:13:30.370Z,101859.30
2023-05-19T01:16:06.831Z,101857.34
2023-05-19T01:18:48.974Z,101856.98
2023-05-19T01:22:02.129Z,101855.24
2023-05-19T01:25:05.221Z,101855.69
2023-05-19T01:27:51.357Z,101852.88
2023-05-19T01:30:28.870Z,101852.50
2023-05-19T01:33:02.937Z,101852.89
2023-05-19T01:35:38.530Z,101851.26
2023-05-19T01:38:11.651Z,101847.28
2023-05-19T01:40:46.244Z,101847.39
2023-05-19T01:43:20.699Z,101844.52
2023-05-19T01:45:53.291Z,101846.08
2023-05-19T01:48:25.646Z,101846.50
2023-05-19T01:50:57.914Z,101843.25
2023-05-19T01:53:29.811Z,101845.39
2023-05-19T01:56:01.830Z,101844.00
2023-05-19T01:58:41.423Z,101844.17
2023-05-19T02:01:24.367Z,101844.58
2023-05-19T02:04:09.460Z,101839.06
2023-05-19T02:06:46.485Z,101837.14
2023-05-19T02:09:22.694Z,101837.92
2023-05-19T02:12:00.387Z,101835.21
2023-05-19T02:14:38.313Z,101832.48
2023-05-19T02:17:11.312Z,101830.87
2023-05-19T02:19:43.787Z,101830.88
2023-05-19T02:22:15.762Z,101829.27
2023-05-19T02:24:48.013Z,101827.98
2023-05-19T02:27:19.880Z,101829.70
2023-05-19T02:29:51.764Z,101830.92
2023-05-19T02:32:23.832Z,101831.56
2023-05-19T02:34:56.574Z,101829.97
2023-05-19T02:37:31.226Z,101834.83
2023-05-19T02:40:03.057Z,101835.33
2023-05-19T02:42:35.292Z,101836.89
2023-05-19T02:45:08.529Z,101842.52
2023-05-19T02:47:41.566Z,101840.61
2023-05-19T02:50:13.762Z,101838.89
2023-05-19T02:52:45.607Z,101835.95
2023-05-19T02:55:17.802Z,101836.51
2023-05-19T02:57:49.621Z,101840.55
2023-05-19T03:00:21.883Z,101833.52
2023-05-19T03:02:54.298Z,101837.16
2023-05-19T03:05:26.151Z,101834.29
2023-05-19T03:07:58.010Z,101834.83
2023-05-19T03:10:30.478Z,101837.20
2023-05-19T03:13:02.472Z,101840.34
2023-05-19T03:15:35.331Z,101838.95
2023-05-19T03:18:08.265Z,101840.48
2023-05-19T03:20:42.491Z,101841.41
2023-05-19T03:23:12.864Z,101838.81
2023-05-19T03:25:45.359Z,101843.23
2023-05-19T03:28:17.292Z,101845.17
2023-05-19T03:30:50.932Z,101841.85
2023-05-19T03:33:28.146Z,101843.22
2023-05-19T03:36:00.367Z,101845.08
2023-05-19T03:38:36.442Z,101842.98
2023-05-19T03:41:08.560Z,101839.83
2023-05-19T03:43:40.471Z,101841.73
2023-05-19T03:46:12.629Z,101841.70
2023-05-19T03:49:04.553Z,101839.34
2023-05-19T03:51:55.975Z,101839.95
2023-05-19T03:54:42.789Z,101840.67
2023-05-19T03:57:15.054Z,101844.27
2023-05-19T03:59:46.978Z,101844.77
2023-05-19T04:02:18.961Z,101840.20
2023-05-19T04:04:51.679Z,101837.31
2023-05-19T04:07:23.604Z,101837.07
2023-05-19T04:09:55.572Z,101836.50
2023-05-19T04:12:27.354Z,101839.67
2023-05-19T04:14:59.175Z,101838.92
2023-05-19T04:17:31.062Z,101839.67
2023-05-19T04:20:02.949Z,101837.70
2023-05-19T04:22:34.855Z,101835.50
2023-05-19T04:25:07.704Z,101838.73
2023-05-19T04:27:40.008Z,101836.83
2023-05-19T04:30:13.266Z,101837.77
2023-05-19T04:32:45.136Z,101839.40
2023-05-19T04:35:17.618Z,101840.54
2023-05-19T04:37:49.812Z,101842.00
2023-05-19T04:40:24.022Z,101846.41
2023-05-19T04:42:57.280Z,101848.42
2023-05-19T04:45:30.218Z,101848.76
2023-05-19T04:48:04.151Z,101844.15
2023-05-19T04:50:38.661Z,101844.80
2023-05-19T04:53:11.474Z,101846.73
2023-05-19T04:55:44.103Z,101840.58
2023-05-19T04:58:17.274Z,101842.54
2023-05-19T05:00:49.260Z,101841.88
2023-05-19T05:03:23.071Z,101841.31
2023-05-19T05:05:56.784Z,101845.46
2023-05-19T05:08:30.316Z,101844.88
2023-05-19T05:11:03.300Z,101851.60
2023-05-19T05:13:36.041Z,101847.75
2023-05-19T05:16:09.451Z,101847.88
2023-05-19T05:18:44.923Z,101844.42
2023-05-19T05:21:17.996Z,101843.36
2023-05-19T05:23:51.214Z,101842.05
2023-05-19T05:26:24.490Z,101839.85
2023-05-19T05:28:56.442Z,101839.44
2023-05-19T05:31:28.846Z,101836.71
2023-05-19T05:34:01.034Z,101833.33
2023-05-19T05:36:35.056Z,101834.21
2023-05-19T05:39:07.083Z,101834.95
2023-05-19T05:41:39.809Z,101837.90
2023-05-19T05:44:15.406Z,101835.70
2023-05-19T05:46:49.535Z,101837.63
2023-05-19T05:49:22.208Z,101842.52
2023-05-19T05:52:05.758Z,101836.70
2023-05-19T05:54:43.798Z,101839.68
2023-05-19T05:57:19.225Z,101839.80
2023-05-19T05:59:51.353Z,101840.66
2023-05-19T06:02:23.352Z,101838.13
2023-05-19T06:04:55.478Z,101835.06
2023-05-19T06:07:27.483Z,101831.48
2023-05-19T06:09:59.322Z,101831.80
2023-05-19T06:12:31.199Z,101835.27
2023-05-19T06:15:03.127Z,101834.42
2023-05-19T06:17:56.129Z,101833.97
2023-05-19T06:20:28.033Z,101835.85
2023-05-19T06:23:01.249Z,101838.65
2023-05-19T06:25:33.817Z,101840.79
2023-05-19T06:28:06.125Z,101841.34
2023-05-19T06:30:38.027Z,101839.34
2023-05-19T06:33:19.341Z,101837.35
2023-05-19T06:35:51.331Z,101834.48
2023-05-19T06:38:23.351Z,101837.16
2023-05-19T06:40:55.655Z,101833.14
2023-05-19T06:43:27.510Z,101835.88
2023-05-19T06:46:07.094Z,101836.27
2023-05-19T06:48:38.983Z,101838.48
2023-05-19T06:51:11.275Z,101841.71
2023-05-19T06:53:43.684Z,101842.31
2023-05-19T06:56:17.150Z,101844.13
2023-05-19T06:58:49.123Z,101840.10
2023-05-19T07:01:21.274Z,101840.56
2023-05-19T07:03:57.752Z,101842.34
2023-05-19T07:06:29.669Z,101840.10
2023-05-19T07:09:02.028Z,101838.82
2023-05-19T07:11:35.014Z,101837.81
2023-05-19T07:14:07.139Z,101836.26
2023-05-19T07:16:39.121Z,101835.10
2023-05-19T07:19:11.120Z,101837.66
2023-05-19T07:21:43.546Z,101830.02
2023-05-19T07:24:15.346Z,101836.11
2023-05-19T07:26:47.095Z,101834.16
2023-05-19T07:29:18.956Z,101836.39
2023-05-19T07:31:54.283Z,101836.23
2023-05-19T07:34:26.284Z,101834.21
2023-05-19T07:36:58.114Z,101835.13
2023-05-19T07:39:32.384Z,101837.73
2023-05-19T07:42:04.550Z,101831.69
2023-05-19T07:44:36.237Z,101834.23
2023-05-19T07:47:08.627Z,101834.45
2023-05-19T07:49:40.543Z,101834.80
2023-05-19T07:52:12.769Z,101831.91
2023-05-19T07:54:45.618Z,101830.52
2023-05-19T07:57:19.016Z,101832.46
2023-05-19T07:59:50.745Z,101833.50
2023-05-19T08:02:22.792Z,101824.70
2023-05-19T08:04:54.899Z,101829.30
2023-05-19T08:07:26.795Z,101827.88
2023-05-19T08:09:58.545Z,101824.02
2023-05-19T08:12:30.415Z,101825.73
2023-05-19T08:15:02.498Z,101827.15
2023-05-19T08:17:34.353Z,101823.31
2023-05-19T08:20:08.708Z,101821.30
2023-05-19T08:22:40.646Z,101817.55
2023-05-19T08:25:13.883Z,101819.42
2023-05-19T08:27:45.683Z,101819.98
2023-05-19T08:30:17.521Z,101820.30
2023-05-19T08:32:49.490Z,101824.33
2023-05-19T08:35:21.417Z,101823.52
2023-05-19T08:37:53.572Z,101823.61
2023-05-19T08:40:27.347Z,101825.58
2023-05-19T08:42:59.148Z,101826.76
2023-05-19T08:45:31.258Z,101827.45
2023-05-19T08:48:03.427Z,101826.73
2023-05-19T08:50:40.616Z,101832.89
2023-05-19T08:53:31.869Z,101831.88
2023-05-19T08:56:10.201Z,101829.37
2023-05-19T08:58:44.234Z,101832.45
2023-05-19T09:01:17.531Z,101830.48
2023-05-19T09:03:50.692Z,101830.13
2023-05-19T09:06:22.573Z,101834.79
2023-05-19T09:08:54.424Z,101834.24
2023-05-19T09:11:26.191Z,101830.81
2023-05-19T09:13:58.029Z,101831.76
2023-05-19T09:16:30.469Z,101832.35
2023-05-19T09:19:02.687Z,101834.34
2023-05-19T09:21:34.704Z,101831.07
2023-05-19T09:24:09.257Z,101830.00
2023-05-19T09:26:41.949Z,101828.27
2023-05-19T09:29:18.447Z,101831.48
2023-05-19T09:31:55.983Z,101829.09
2023-05-19T09:34:27.929Z,101827.41
2023-05-19T09:36:59.999Z,101827.30
2023-05-19T09:39:32.834Z,101831.13
2023-05-19T09:42:07.356Z,101829.52
2023-05-19T09:44:39.155Z,101828.30
2023-05-19T09:47:12.081Z,101830.03
2023-05-19T09:49:48.566Z,101830.17
2023-05-19T09:52:20.375Z,101829.31
2023-05-19T09:54:52.440Z,101827.37
2023-05-19T09:57:28.948Z,101828.73
2023-05-19T10:00:01.236Z,101825.45
2023-05-19T10:02:34.204Z,101825.54
2023-05-19T10:05:07.592Z,101830.02
2023-05-19T10:07:40.491Z,101833.24
2023-05-19T10:10:14.988Z,101827.14
2023-05-19T10:12:46.728Z,101827.23
2023-05-19T10:15:21.412Z,101825.22
2023-05-19T10:17:54.948Z,101823.02
2023-05-19T10:20:26.959Z,101822.50
2023-05-19T10:22:58.743Z,101822.37
2023-05-19T10:25:31.065Z,101821.17
2023-05-19T10:28:07.822Z,101817.86
2023-05-19T10:30:42.496Z,101817.80
2023-05-19T10:33:16.584Z,101815.61
2023-05-19T10:36:17.560Z,101812.86
2023-05-19T10:38:53.922Z,101810.65
2023-05-19T10:41:30.017Z,101809.55
2023-05-19T10:44:10.961Z,101805.46
2023-05-19T10:46:43.832Z,101803.55
2023-05-19T10:49:23.043Z,101804.17
2023-05-19T10:51:57.974Z,101801.46
2023-05-19T10:54:44.384Z,101802.71
2023-05-19T10:57:18.548Z,101802.86
2023-05-19T10:59:49.968Z,101804.40
2023-05-19T11:02:39.613Z,101807.94
2023-05-19T11:05:14.489Z,101808.40
2023-05-19T11:07:56.195Z,101804.42
2023-05-19T11:10:28.182Z,101807.55
2023-05-19T11:13:01.151Z,101807.40
2023-05-19T11:15:37.446Z,101808.33
2023-05-19T11:18:10.690Z,101805.17
2023-05-19T11:20:43.125Z,101805.63
2023-05-19T11:23:18.849Z,101805.14
2023-05-19T11:25:52.217Z,101805.92
2023-05-19T11:28:27.996Z,101804.79
2023-05-19T11:31:02.284Z,101806.91
2023-05-19T11:33:34.963Z,101806.07
2023-05-19T11:36:07.162Z,101809.49
2023-05-19T11:38:38.946Z,101807.55
2023-05-19T11:41:10.764Z,101806.36
2023-05-19T11:43:42.861Z,101806.70
2023-05-19T11:46:14.781Z,101804.33
2023-05-19T11:48:50.562Z,101803.04
2023-05-19T11:51:24.161Z,101804.11
2023-05-19T11:53:56.049Z,101804.30
2023-05-19T11:56:27.901Z,101802.26
2023-05-19T11:58:59.646Z,101802.90
2023-05-19T12:01:32.097Z,101802.73
2023-05-19T12:04:04.322Z,101798.35
2023-05-19T12:06:36.955Z,101799.38
2023-05-19T12:09:09.971Z,101799.64
2023-05-19T12:11:42.620Z,101802.55
2023-05-19T12:14:14.649Z,101801.70
2023-05-19T12:16:46.921Z,101800.83
2023-05-19T12:19:18.858Z,101805.09
2023-05-19T12:21:51.170Z,101805.52
2023-05-19T12:24:24.393Z,101807.52
2023-05-19T12:27:09.033Z,101807.45
2023-05-19T12:29:40.891Z,101803.32
2023-05-19T12:32:12.881Z,101807.27
2023-05-19T12:34:44.826Z,101811.20
2023-05-19T12:37:17.085Z,101811.31
2023-05-19T12:39:49.267Z,101812.09
2023-05-19T12:42:21.142Z,101812.80
2023-05-19T12:44:55.552Z,101810.08
2023-05-19T12:47:34.798Z,101809.46
2023-05-19T12:50:08.461Z,101805.70
2023-05-19T12:52:45.638Z,101805.18
2023-05-19T12:55:17.538Z,101803.48
2023-05-19T12:57:54.729Z,101803.64
2023-05-19T13:00:28.950Z,101800.52
2023-05-19T13:03:03.094Z,101798.71
2023-05-19T13:05:36.029Z,101800.60
2023-05-19T13:08:09.892Z,101795.87
2023-05-19T13:10:40.635Z,101797.23
2023-05-19T13:13:12.964Z,101800.18
2023-05-19T13:15:45.996Z,101800.73
2023-05-19T13:18:18.467Z,101798.44
2023-05-19T13:20:51.489Z,101796.25
2023-05-19T13:23:23.297Z,101799.02
2023-05-19T13:25:55.082Z,101802.21
2023-05-19T13:28:27.038Z,101800.19
2023-05-19T13:30:59.583Z,101801.65
2023-05-19T13:33:31.565Z,101799.48
2023-05-19T13:36:03.423Z,101790.09
2023-05-19T13:38:35.282Z,101794.48
2023-05-19T13:41:09.376Z,101793.43
2023-05-19T13:43:42.673Z,101790.68
2023-05-19T13:46:14.592Z,101794.64
2023-05-19T13:48:46.707Z,101796.16
2023-05-19T13:51:18.550Z,101799.95
2023-05-19T13:53:50.450Z,101796.39
2023-05-19T13:56:22.310Z,101796.98
2023-05-19T13:58:54.843Z,101799.27
2023-05-19T14:01:26.704Z,101797.55
2023-05-19T14:03:58.741Z,101789.52
2023-05-19T14:06:30.789Z,101788.66
2023-05-19T14:09:02.878Z,101790.33
2023-05-19T14:11:34.683Z,101794.23
2023-05-19T14:14:08.395Z,101795.80
2023-05-19T14:16:41.226Z,101797.95
2023-05-19T14:19:13.169Z,101792.74
2023-05-19T14:21:45.132Z,101795.17
2023-05-19T14:24:16.921Z,101792.27
2023-05-19T14:26:49.596Z,101790.64
2023-05-19T14:29:21.506Z,101786.27
2023-05-19T14:31:53.380Z,101792.80
2023-05-19T14:34:25.187Z,101793.80
2023-05-19T14:36:57.205Z,101797.52
2023-05-19T14:39:30.174Z,101799.70
2023-05-19T14:42:02.050Z,101799.22
2023-05-19T14:44:34.477Z,101797.22
2023-05-19T14:47:08.660Z,101796.11
2023-05-19T14:49:40.665Z,101796.34
2023-05-19T14:52:12.477Z,101797.73
2023-05-19T14:54:47.887Z,101795.31
2023-05-19T14:57:19.910Z,101799.08
2023-05-19T14:59:51.869Z,101799.48
2023-05-19T15:02:23.810Z,101801.67
2023-05-19T15:04:55.879Z,101799.20
2023-05-19T15:07:27.861Z,101801.92
2023-05-19T15:09:59.807Z,101803.90
2023-05-19T15:12:31.697Z,101806.16
2023-05-19T15:15:04.012Z,101804.39
2023-05-19T15:17:36.461Z,101804.10
2023-05-19T15:20:10.020Z,101805.66
2023-05-19T15:22:42.032Z,101809.23
2023-05-19T15:25:14.756Z,101811.66
2023-05-19T15:27:46.629Z,101810.57
2023-05-19T15:30:18.827Z,101810.90
2023-05-19T15:32:50.755Z,101807.50
2023-05-19T15:35:22.615Z,101806.36
2023-05-19T15:37:54.505Z,101802.40
2023-05-19T15:40:26.400Z,101804.69
2023-05-19T15:42:58.205Z,101797.73
2023-05-19T15:45:31.200Z,101797.47
2023-05-19T15:48:03.411Z,101799.06
2023-05-19T15:50:35.818Z,101798.54
2023-05-19T15:53:09.014Z,101796.70
2023-05-19T15:55:41.089Z,101793.91
2023-05-19T15:58:13.843Z,101793.65
2023-05-19T16:00:46.417Z,101792.08
2023-05-19T16:03:19.152Z,101792.44
2023-05-19T16:05:51.357Z,101792.25
2023-05-19T16:08:23.348Z,101787.83
2023-05-19T16:10:55.292Z,101786.22
2023-05-19T16:13:27.063Z,101781.41
2023-05-19T16:15:59.150Z,101780.67
2023-05-19T16:18:31.037Z,101789.51
2023-05-19T16:21:02.805Z,101783.94
2023-05-19T16:23:34.643Z,101787.01
2023-05-19T16:26:06.450Z,101790.16
2023-05-19T16:28:38.263Z,101792.77
2023-05-19T16:31:10.066Z,101793.97
2023-05-19T16:33:42.540Z,101796.63
2023-05-19T16:36:15.305Z,101794.94
2023-05-19T16:38:47.415Z,101793.96
2023-05-19T16:41:19.184Z,101792.34
2023-05-19T16:43:51.023Z,101793.40
2023-05-19T16:46:23.000Z,101793.55
2023-05-19T16:48:54.889Z,101795.57
2023-05-19T16:51:26.739Z,101796.00
2023-05-19T16:53:58.537Z,101797.36
2023-05-19T16:56:30.558Z,101793.95
2023-05-19T16:59:02.364Z,101793.70
2023-05-19T17:01:34.210Z,101788.79
2023-05-19T17:04:06.255Z,101790.08
2023-05-19T17:06:38.166Z,101790.11
2023-05-19T17:09:09.947Z,101790.35
2023-05-19T17:11:41.756Z,101789.27
2023-05-19T17:14:13.564Z,101788.84
2023-05-19T17:16:45.453Z,101784.98
2023-05-19T17:19:17.374Z,101788.05
2023-05-19T17:21:49.303Z,101785.80
2023-05-19T17:24:21.181Z,101785.32
2023-05-19T17:26:53.041Z,101785.70
2023-05-19T17:29:24.909Z,101783.32
2023-05-19T17:31:56.755Z,101780.84
2023-05-19T17:34:30.071Z,101779.08
2023-05-19T17:37:02.109Z,101779.90
2023-05-19T17:39:33.979Z,101780.77
2023-05-19T17:42:06.668Z,101782.52
2023-05-19T17:44:38.486Z,101779.19
2023-05-19T17:47:10.852Z,101783.65
2023-05-19T17:49:42.870Z,101788.90
2023-05-19T17:52:15.952Z,101787.16
2023-05-19T17:54:48.714Z,101791.92
2023-05-19T17:57:20.927Z,101791.52
2023-05-19T17:59:53.784Z,101792.26
2023-05-19T18:02:26.456Z,101791.42
2023-05-19T18:05:00.150Z,101792.89
2023-05-19T18:07:32.107Z,101792.86
2023-05-19T18:10:04.630Z,101790.69
2023-05-19T18:12:36.505Z,101793.98
2023-05-19T18:15:09.693Z,101792.63
2023-05-19T18:17:41.526Z,101792.83
2023-05-19T18:20:15.315Z,101799.02
2023-05-19T18:22:47.135Z,101795.23
2023-05-19T18:25:20.103Z,101791.96
2023-05-19T18:27:55.739Z,101794.27
2023-05-19T18:30:27.645Z,101795.50
2023-05-19T18:33:02.105Z,101798.60
2023-05-19T18:35:34.061Z,101807.52
2023-05-19T18:38:05.904Z,101805.74
2023-05-19T18:40:38.944Z,101808.20
2023-05-19T18:43:10.896Z,101813.43
2023-05-19T18:45:42.869Z,101818.90
2023-05-19T18:48:15.450Z,101820.91
2023-05-19T18:50:47.772Z,101829.20
2023-05-19T18:53:19.646Z,101829.61
2023-05-19T18:55:51.845Z,101832.47
2023-05-19T18:58:24.240Z,101832.61
2023-05-19T19:00:58.663Z,101832.64
2023-05-19T19:03:30.712Z,101833.14
2023-05-19T19:06:02.787Z,101835.10
2023-05-19T19:08:34.618Z,101834.90
2023-05-19T19:11:09.377Z,101837.89
2023-05-19T19:13:41.219Z,101837.70
2023-05-19T19:16:13.148Z,101839.30
2023-05-19T19:18:45.099Z,101840.98
2023-05-19T19:21:19.303Z,101839.69
2023-05-19T19:23:49.509Z,101842.15
2023-05-19T19:26:21.819Z,101842.23
2023-05-19T19:28:53.613Z,101840.23
2023-05-19T19:31:25.900Z,101840.75
2023-05-19T19:34:00.901Z,101836.79
2023-05-19T19:36:32.984Z,101839.23
2023-05-19T19:39:04.799Z,101844.34
2023-05-19T19:41:36.713Z,101845.17
2023-05-19T19:44:09.034Z,101847.19
2023-05-19T19:46:41.163Z,101847.20
2023-05-19T19:49:12.963Z,101853.17
2023-05-19T19:51:44.844Z,101852.30
2023-05-19T19:54:16.777Z,101851.14
2023-05-19T19:56:48.595Z,101850.33
2023-05-19T19:59:20.366Z,101850.83
2023-05-19T20:01:52.315Z,101849.34
2023-05-19T20:04:24.275Z,101850.64
2023-05-19T20:06:56.485Z,101848.58
2023-05-19T20:09:28.258Z,101849.16
2023-05-19T20:12:00.046Z,101848.71
2023-05-19T20:14:32.066Z,101848.30
2023-05-19T20:17:04.521Z,101850.47
2023-05-19T20:19:36.362Z,101850.88
2023-05-19T20:22:08.556Z,101847.95
2023-05-19T20:24:40.746Z,101849.53
2023-05-19T20:27:12.523Z,101848.65
2023-05-19T20:29:45.530Z,101850.97
2023-05-19T20:32:17.459Z,101850.67
2023-05-19T20:34:49.361Z,101847.52
2023-05-19T20:37:22.146Z,101849.99
2023-05-19T20:39:54.548Z,101845.51
2023-05-19T20:42:26.735Z,101849.59
2023-05-19T20:44:58.717Z,101849.70
2023-05-19T20:47:30.742Z,101850.84
2023-05-19T20:50:02.854Z,101859.17
2023-05-19T20:52:34.801Z,101861.96
2023-05-19T20:55:07.197Z,101861.77
2023-05-19T20:57:39.032Z,101859.61
2023-05-19T21:00:12.623Z,101858.70
2023-05-19T21:02:44.475Z,101860.59
2023-05-19T21:05:16.449Z,101863.30
2023-05-19T21:07:48.499Z,101864.89
2023-05-19T21:10:20.610Z,101868.07
2023-05-19T21:12:52.466Z,101861.13
2023-05-19T21:15:24.696Z,101864.88
2023-05-19T21:17:56.602Z,101857.03
2023-05-19T21:20:29.252Z,101860.46
2023-05-19T21:23:01.925Z,101861.58
2023-05-19T21:25:34.160Z,101860.81
2023-05-19T21:28:06.222Z,101857.95
2023-05-19T21:30:37.956Z,101855.14
2023-05-19T21:33:09.909Z,101858.27
2023-05-19T21:35:41.780Z,101859.45
2023-05-19T21:38:23.383Z,101858.84
2023-05-19T21:40:59.375Z,101859.77
2023-05-19T21:43:31.290Z,101860.90
2023-05-19T21:46:03.054Z,101859.05
2023-05-19T21:48:35.030Z,101859.66
2023-05-19T21:51:07.413Z,101863.44
2023-05-19T21:53:39.226Z,101867.31
2023-05-19T21:56:11.286Z,101859.45
2023-05-19T21:58:43.553Z,101860.58
2023-05-19T22:01:15.496Z,101856.80
2023-05-19T22:03:47.338Z,101855.60
2023-05-19T22:06:19.157Z,101857.30
2023-05-19T22:08:51.075Z,101855.20
2023-05-19T22:11:22.845Z,101855.52
2023-05-19T22:13:55.355Z,101857.33
2023-05-19T22:16:27.357Z,101857.43
2023-05-19T22:18:59.295Z,101858.60
2023-05-19T22:21:31.279Z,101860.73
2023-05-19T22:24:03.117Z,101857.39
2023-05-19T22:26:35.840Z,101856.70
2023-05-19T22:29:07.960Z,101855.63
2023-05-19T22:31:39.842Z,101860.81
2023-05-19T22:34:12.700Z,101861.86
2023-05-19T22:36:46.050Z,101861.20
2023-05-19T22:39:17.818Z,101860.52
2023-05-19T22:41:49.585Z,101856.98
2023-05-19T22:44:21.610Z,101859.02
2023-05-19T22:46:53.656Z,101854.20
2023-05-19T22:49:25.791Z,101853.31
2023-05-19T22:51:57.823Z,101853.38
2023-05-19T22:54:29.675Z,101852.49
2023-05-19T22:57:01.542Z,101851.24
2023-05-19T22:59:33.682Z,101845.16
2023-05-19T23:02:05.726Z,101850.17
2023-05-19T23:04:37.905Z,101847.96
2023-05-19T23:07:09.978Z,101848.39
2023-05-19T23:09:41.806Z,101843.31
2023-05-19T23:12:13.828Z,101843.14
2023-05-19T23:14:45.648Z,101840.30
2023-05-19T23:17:17.465Z,101848.05
2023-05-19T23:19:49.254Z,101848.89
2023-05-19T23:22:21.055Z,101847.09
2023-05-19T23:24:53.166Z,101844.23
2023-05-19T23:27:25.529Z,101844.08
2023-05-19T23:29:57.891Z,101840.39
2023-05-19T23:32:29.952Z,101843.98
2023-05-19T23:35:12.055Z,101840.48
2023-05-19T23:37:43.965Z,101838.77
2023-05-19T23:40:16.506Z,101834.60
2023-05-19T23:42:48.293Z,101834.15
2023-05-19T23:45:20.345Z,101835.67
2023-05-19T23:47:52.533Z,101836.92
2023-05-19T23:50:24.504Z,101839.46
2023-05-19T23:52:56.366Z,101841.27
2023-05-19T23:55:28.381Z,101842.30
2023-05-19T23:58:00.297Z,101841.55
